Canyon Creek, Idaho
Current Conditions -  °F | °C
As of 3:53 PM on Tuesday 25 Nov 2014 (Local Time) from KRXE Reporting Station
Overcast Overcast  
Wind Chill: 37°   Ceiling: 7000
Heat Index: 43°   Visibility: 10mi
Dew Point: 36°   Wind: 12mph
Humidity: 76%   Direction: 200°SSW
Pressure: 30.06"   Gusts: NA
Location:  43.8021°N, 111.594°W
Report Text: KRXE 252253Z AUTO 20010KT 10SM SCT031 BKN070 OVC095 06/02 A3006 RMK AO2 SLP190 T00610022
Loading
Personal Weather Stations






























Interactive Weather Map New forecast layout! Learn more

10-Day Weather Forecast

Advertisements
Track Severe Weather on mobile